Maverick — WDC5837 — position and weather

sailwx.info

Track history (hours):
 
Tides and Currents Weather Stations Pressure Air Temp Water Temp Dewpoint Dewpoint Depression Visibility Wind Speed Wind Dir Waves Ship Positions

Maverick

Owner: Tidewater Barge Lines Inc., Vancouver, WA. More information available from US FCC via Universal Licensing System and Coast Guard Vessel Documentation Center.

Last reported at 2018-Jun-22 17:00 UTC. Time now 2018-Jun-22 17:11 UTC.
Position N 45°39' W 122°44'.

Length 25 m.

Type: Towing. MMSI: 2142722.

Date/timePositionNaut miles runAvg speedWind from/ knotsBaromVisibWave heightAir tempDewpointWater temp
2018-Jun-22 17:00N 45°39' W 122°44'0 0.0
2018-Jun-22 16:30N 45°39' W 122°44'0 0.0
2018-Jun-22 16:00N 45°39' W 122°44'0 0.0
2018-Jun-22 15:30N 45°39' W 122°44'0 0.0
2018-Jun-22 15:00N 45°39' W 122°44'0 0.0
2018-Jun-22 14:30N 45°39' W 122°44'0 0.0
2018-Jun-22 14:00N 45°39' W 122°44'0 0.0
2018-Jun-22 13:30N 45°39' W 122°44'0 0.0
2018-Jun-22 13:00N 45°39' W 122°44'0 0.0
2018-Jun-22 12:27N 45°39' W 122°44'0 0.0
2018-Jun-22 12:00N 45°39' W 122°44'0 0.0
2018-Jun-22 11:30N 45°39' W 122°44'0 0.0
2018-Jun-22 11:00N 45°39' W 122°44'0 0.0
2018-Jun-22 10:30N 45°39' W 122°44'0 0.0
2018-Jun-22 10:00N 45°39' W 122°44'0 0.0
2018-Jun-22 09:30N 45°39' W 122°44'0 0.0
2018-Jun-22 09:00N 45°39' W 122°44'0 0.0
2018-Jun-22 08:23N 45°39' W 122°44'0 0.0
2018-Jun-22 08:00N 45°39' W 122°44'0 0.0
2018-Jun-22 07:30N 45°39' W 122°44'0 0.0
2018-Jun-22 06:59N 45°39' W 122°44'1 3.0
2018-Jun-22 06:30N 45°39' W 122°46'5 6.6
2018-Jun-22 05:43N 45°34' W 122°44'0 1.2
2018-Jun-22 05:30N 45°34' W 122°44'0 0.0
2018-Jun-22 05:00N 45°34' W 122°44'0 0.0
2018-Jun-22 04:30N 45°34' W 122°44'0 0.0
2018-Jun-22 04:00N 45°34' W 122°44'0 0.0
2018-Jun-22 03:30N 45°34' W 122°44'0 0.0
2018-Jun-22 03:00N 45°34' W 122°44'0 0.1
2018-Jun-22 02:29N 45°34' W 122°44'4 7.7
2018-Jun-22 02:00N 45°37' W 122°47'3 5.7
2018-Jun-22 01:30N 45°39' W 122°44'0 0.1
2018-Jun-22 01:00N 45°39' W 122°44'0 0.0
2018-Jun-22 00:30N 45°39' W 122°44'0 0.0
2018-Jun-22 00:00N 45°39' W 122°44'0 0.0
2018-Jun-21 23:30N 45°39' W 122°44'0 0.0
2018-Jun-21 23:00N 45°39' W 122°44'0 0.0
2018-Jun-21 22:30N 45°39' W 122°44'0 0.0
2018-Jun-21 21:58N 45°39' W 122°44'0 0.0
2018-Jun-21 21:30N 45°39' W 122°44'0 0.0
2018-Jun-21 21:00N 45°39' W 122°44'2 4.5
2018-Jun-21 20:30N 45°38' W 122°47'3 6.7
2018-Jun-21 20:00N 45°35' W 122°45'2 3.0
2018-Jun-21 19:30N 45°34' W 122°44'2 4.4
2018-Jun-21 19:00N 45°35' W 122°46'2 3.6
2018-Jun-21 18:30N 45°37' W 122°47'3 5.4
2018-Jun-21 18:00N 45°39' W 122°45'0 0.7
2018-Jun-21 17:30N 45°39' W 122°44'0 0.5
2018-Jun-21 17:00N 45°39' W 122°45'0 0.3
2018-Jun-21 16:30N 45°39' W 122°45'0 0.3
2018-Jun-21 16:00N 45°39' W 122°44'3 5.1
2018-Jun-21 15:30N 45°37' W 122°47'1 2.3
2018-Jun-21 15:00N 45°38' W 122°47'3 6.6
2018-Jun-21 14:30N 45°38' W 122°42'3 6.9
2018-Jun-21 14:00N 45°36' W 122°38'4 8.7
2018-Jun-21 13:30N 45°35' W 122°32'4 8.4
2018-Jun-21 12:59N 45°34' W 122°26'2 5.0
2018-Jun-21 12:30N 45°34' W 122°22'5 8.9
2018-Jun-21 11:55N 45°33' W 122°15'4 9.0
2018-Jun-21 11:30N 45°35' W 122°11'4 8.2
2018-Jun-21 10:59N 45°36' W 122°05'3 0.5
2018-Jun-21 06:11N 45°37' W 122°02'2 5.2
2018-Jun-21 05:47N 45°36' W 122°04'3 6.5
2018-Jun-21 05:23N 45°35' W 122°08'3 6.5
2018-Jun-21 05:00N 45°34' W 122°11'3 6.4
2018-Jun-21 04:30N 45°33' W 122°15'3 6.2
2018-Jun-21 04:00N 45°33' W 122°19'3 5.4
2018-Jun-21 03:30N 45°35' W 122°23'3 5.5
2018-Jun-21 03:00N 45°34' W 122°27'3 5.1
2018-Jun-21 02:30N 45°35' W 122°30'3 6.7
2018-Jun-21 02:00N 45°36' W 122°34'3 6.7
2018-Jun-21 01:30N 45°37' W 122°39'3 5.7
2018-Jun-21 01:00N 45°38' W 122°42'3 5.0
2018-Jun-21 00:30N 45°39' W 122°45'1 1.6
2018-Jun-21 00:00N 45°39' W 122°45'0 0.1
2018-Jun-20 23:19N 45°39' W 122°45'0 0.1
2018-Jun-20 22:49N 45°39' W 122°45'0 0.9
2018-Jun-20 22:23N 45°39' W 122°45'0 0.7
2018-Jun-20 22:00N 45°39' W 122°45'0 0.8
2018-Jun-20 21:28N 45°39' W 122°45'2 4.2
2018-Jun-20 21:00N 45°38' W 122°47'2 3.8
2018-Jun-20 20:27N 45°36' W 122°47'2 4.0
2018-Jun-20 20:00N 45°34' W 122°45'1 0.9
2018-Jun-20 19:25N 45°34' W 122°44'0 0.2
2018-Jun-20 19:00N 45°34' W 122°44'0 0.0
2018-Jun-20 18:24N 45°34' W 122°44'1 1.6
2018-Jun-20 18:00N 45°34' W 122°45'4 6.0
2018-Jun-20 17:24N 45°37' W 122°47'3 5.7
2018-Jun-20 16:58N 45°39' W 122°45'1 2.4
2018-Jun-20 16:24N 45°38' W 122°46'0 0.1
2018-Jun-20 15:56N 45°38' W 122°46'0 0.0
2018-Jun-20 15:24N 45°38' W 122°46'0 0.0
2018-Jun-20 14:57N 45°38' W 122°46'1 3.2
2018-Jun-20 14:29N 45°39' W 122°44'0 0.0
2018-Jun-20 14:00N 45°39' W 122°44'0 0.0
2018-Jun-20 13:30N 45°39' W 122°44'0 0.0
2018-Jun-20 12:59N 45°39' W 122°44'0 0.0
2018-Jun-20 12:24N 45°39' W 122°44'0 0.0
2018-Jun-20 11:59N 45°39' W 122°44'0 0.0
2018-Jun-20 11:28N 45°39' W 122°44'0 0.0
2018-Jun-20 10:46N 45°39' W 122°44'0 0.0
2018-Jun-20 10:30N 45°39' W 122°44'0 0.0
2018-Jun-20 10:00N 45°39' W 122°44'1 2.7
2018-Jun-20 09:30N 45°38' W 122°43'0 0.2
2018-Jun-20 09:01N 45°38' W 122°43'3 5.2
2018-Jun-20 08:31N 45°38' W 122°47'1 2.7
2018-Jun-20 08:01N 45°39' W 122°45'0 0.8
2018-Jun-20 07:30N 45°39' W 122°44'0 0.5
2018-Jun-20 06:59N 45°39' W 122°44'0 0.0
2018-Jun-20 05:35N 45°39' W 122°44'0 0.0
2018-Jun-20 05:29N 45°39' W 122°44'0 0.0
2018-Jun-20 05:00N 45°39' W 122°44'0 0.0
2018-Jun-20 04:30N 45°39' W 122°44'0 0.0
2018-Jun-20 04:00N 45°39' W 122°44'0 0.0
2018-Jun-20 03:20N 45°39' W 122°44'0 0.0
2018-Jun-20 03:00N 45°39' W 122°44'0 1.0
2018-Jun-20 02:30N 45°39' W 122°44'1 1.4
2018-Jun-20 02:00N 45°38' W 122°43'2 4.5
2018-Jun-20 01:31N 45°39' W 122°46'2 3.7
2018-Jun-20 01:00N 45°38' W 122°47'4 7.2
2018-Jun-20 00:30N 45°34' W 122°45'0 1.0
2018-Jun-20 00:00N 45°34' W 122°44'1 1.5
2018-Jun-19 23:30N 45°35' W 122°45'3 6.5
2018-Jun-19 23:00N 45°37' W 122°47'3 5.1
2018-Jun-19 22:31N 45°39' W 122°44'1 2.3
2018-Jun-19 22:00N 45°39' W 122°46'4 5.1
2018-Jun-19 21:09N 45°35' W 122°45'1 4.7
2018-Jun-19 21:00N 45°34' W 122°44'0 0.2
2018-Jun-19 20:30N 45°34' W 122°44'0 0.0
2018-Jun-19 20:00N 45°34' W 122°44'2 5.0
2018-Jun-19 19:30N 45°36' W 122°47'3 6.6
2018-Jun-19 19:00N 45°39' W 122°46'1 1.8
2018-Jun-19 18:30N 45°39' W 122°45'0 0.1
2018-Jun-19 18:00N 45°39' W 122°45'0 0.0
2018-Jun-19 17:30N 45°39' W 122°45'0 0.0
2018-Jun-19 17:00N 45°39' W 122°45'0 0.1
2018-Jun-19 16:19N 45°39' W 122°45'1 3.6
2018-Jun-19 16:00N 45°39' W 122°46'1 1.5
2018-Jun-19 15:28N 45°39' W 122°46'1 2.0
2018-Jun-19 15:00N 45°39' W 122°44'1 1.1
2018-Jun-19 14:30N 45°39' W 122°45'2 3.9
2018-Jun-19 14:00N 45°38' W 122°43'2 4.3
2018-Jun-19 13:30N 45°39' W 122°46'3 6.5
2018-Jun-19 13:00N 45°36' W 122°47'3 5.6
2018-Jun-19 12:31N 45°34' W 122°44'3 5.9
2018-Jun-19 12:00N 45°32' W 122°41'0 0.3
2018-Jun-19 11:30N 45°32' W 122°41'3 5.8
2018-Jun-19 11:00N 45°34' W 122°44'1 2.6
2018-Jun-19 10:30N 45°33' W 122°43'2 3.8
2018-Jun-19 10:00N 45°32' W 122°40'3 6.0
2018-Jun-19 09:31N 45°34' W 122°44'1 2.5
2018-Jun-19 09:00N 45°35' W 122°45'3 5.7
2018-Jun-19 08:30N 45°37' W 122°47'2 5.0
2018-Jun-19 08:00N 45°39' W 122°45'1 2.5
2018-Jun-19 07:30N 45°38' W 122°44'1 2.4
2018-Jun-19 07:00N 45°38' W 122°42'0 0.0
2018-Jun-19 06:30N 45°38' W 122°42'0 0.1
2018-Jun-19 06:00N 45°38' W 122°42'2 3.7
2018-Jun-19 05:30N 45°39' W 122°45'0 0.2
2018-Jun-19 05:00N 45°39' W 122°45'0 0.1
2018-Jun-19 04:30N 45°39' W 122°45'0 0.9
2018-Jun-19 04:01N 45°39' W 122°45'1 1.1
2018-Jun-19 03:30N 45°39' W 122°44'0 0.0
2018-Jun-19 03:00N 45°39' W 122°44'0 0.0
2018-Jun-19 02:31N 45°39' W 122°44'0 0.0
2018-Jun-19 02:00N 45°39' W 122°44'0 0.0
2018-Jun-19 01:31N 45°39' W 122°44'0 0.0
2018-Jun-19 01:00N 45°39' W 122°44'0 0.0
2018-Jun-19 00:30N 45°39' W 122°44'0 0.0
2018-Jun-19 00:00N 45°39' W 122°44'0 0.0
2018-Jun-18 23:30N 45°39' W 122°44'0 0.8
2018-Jun-18 23:00N 45°38' W 122°44'0 0.0
2018-Jun-18 22:30N 45°39' W 122°44'0 0.2
2018-Jun-18 22:01N 45°39' W 122°44'1 2.4
2018-Jun-18 21:30N 45°38' W 122°43'2 4.0
2018-Jun-18 20:59N 45°39' W 122°45'1 1.9
2018-Jun-18 20:30N 45°39' W 122°46'3 6.7
2018-Jun-18 20:00N 45°35' W 122°46'2 4.0
2018-Jun-18 19:30N 45°34' W 122°44'3 6.4
2018-Jun-18 19:00N 45°32' W 122°40'0 0.0
2018-Jun-18 18:30N 45°32' W 122°40'2 3.0
2018-Jun-18 18:00N 45°33' W 122°42'2 3.5
2018-Jun-18 17:30N 45°34' W 122°44'0 0.0
2018-Jun-18 17:00N 45°34' W 122°44'0 0.0
2018-Jun-18 16:30N 45°34' W 122°44'0 0.0
2018-Jun-18 16:00N 45°34' W 122°44'0 0.0
2018-Jun-18 15:30N 45°34' W 122°44'0 0.0
2018-Jun-18 15:00N 45°34' W 122°44'0 0.0
2018-Jun-18 14:30N 45°34' W 122°44'0 0.0
2018-Jun-18 14:00N 45°34' W 122°44'0 0.0
2018-Jun-18 13:31N 45°34' W 122°44'0 0.0
2018-Jun-18 13:00N 45°34' W 122°44'0 0.0
2018-Jun-18 12:30N 45°34' W 122°44'0 0.2
2018-Jun-18 12:00N 45°34' W 122°44'2 4.5
2018-Jun-18 11:30N 45°36' W 122°47'3 6.0
2018-Jun-18 11:00N 45°39' W 122°46'1 2.8
2018-Jun-18 10:30N 45°39' W 122°44'0 0.0
2018-Jun-18 10:00N 45°39' W 122°44'0 0.0
2018-Jun-18 09:26N 45°39' W 122°44'0 0.0
2018-Jun-18 09:01N 45°39' W 122°44'0 0.0
2018-Jun-18 08:30N 45°39' W 122°44'0 0.0
2018-Jun-18 08:00N 45°39' W 122°44'0 0.0
2018-Jun-18 07:30N 45°39' W 122°44'1 2.5
2018-Jun-18 06:59N 45°39' W 122°46'1 1.9
2018-Jun-18 06:30N 45°39' W 122°45'2 3.9
2018-Jun-18 06:01N 45°38' W 122°43'2 4.0
2018-Jun-18 05:30N 45°39' W 122°45'1 1.9
2018-Jun-18 05:01N 45°38' W 122°46'2 4.0
2018-Jun-18 04:29N 45°36' W 122°47'3 6.8
2018-Jun-18 04:00N 45°34' W 122°44'1 2.4
2018-Jun-18 03:31N 45°35' W 122°45'2 3.9
2018-Jun-18 03:00N 45°36' W 122°47'3 5.1
2018-Jun-18 02:25N 45°39' W 122°45'2 4.4
2018-Jun-18 02:00N 45°38' W 122°42'2 3.2
2018-Jun-18 01:30N 45°39' W 122°44'0 0.2
2018-Jun-18 01:00N 45°39' W 122°44'0 0.0
2018-Jun-18 00:30N 45°39' W 122°44'0 0.0
2018-Jun-18 00:00N 45°39' W 122°44'0 0.0
2018-Jun-17 23:30N 45°39' W 122°44'1 1.8
2018-Jun-17 22:46N 45°38' W 122°43'0 0.2
2018-Jun-17 22:30N 45°38' W 122°43'2 4.9
2018-Jun-17 22:00N 45°39' W 122°46'1 1.5
2018-Jun-17 21:28N 45°39' W 122°46'3 5.8
2018-Jun-17 21:00N 45°38' W 122°42'0 0.5
2018-Jun-17 20:23N 45°38' W 122°43'0 0.4
2018-Jun-17 20:01N 45°38' W 122°43'0 0.4
2018-Jun-17 19:30N 45°38' W 122°43'0 0.0
2018-Jun-17 19:00N 45°38' W 122°43'0 0.2
2018-Jun-17 18:30N 45°38' W 122°43'1 2.5
2018-Jun-17 18:00N 45°39' W 122°44'0 0.0
2018-Jun-17 17:30N 45°39' W 122°44'0 0.0
2018-Jun-17 17:00N 45°39' W 122°44'0 0.0
2018-Jun-17 16:30N 45°39' W 122°44'0 0.0
2018-Jun-17 15:56N 45°39' W 122°44'0 0.0
2018-Jun-17 15:30N 45°39' W 122°44'0 0.0
2018-Jun-17 15:00N 45°39' W 122°44'0 0.0
2018-Jun-17 14:29N 45°39' W 122°44'0 0.0
2018-Jun-17 14:00N 45°39' W 122°44'0 0.0
2018-Jun-17 13:30N 45°39' W 122°44'0 0.0
2018-Jun-17 13:00N 45°39' W 122°44'0 0.0
2018-Jun-17 12:30N 45°39' W 122°44'0 0.0
2018-Jun-17 12:00N 45°39' W 122°44'1 2.6
2018-Jun-17 11:31N 45°39' W 122°46'1 1.0
2018-Jun-17 11:00N 45°39' W 122°46'1 2.5
2018-Jun-17 10:30N 45°39' W 122°44'0 0.4
2018-Jun-17 09:44N 45°39' W 122°44'0 0.0
2018-Jun-17 09:30N 45°39' W 122°44'0 0.0
2018-Jun-17 09:00N 45°39' W 122°44'0 0.0
2018-Jun-17 08:30N 45°39' W 122°44'0 0.2
2018-Jun-17 08:00N 45°39' W 122°45'1 1.2
2018-Jun-17 07:30N 45°39' W 122°45'0 0.8
2018-Jun-17 07:00N 45°39' W 122°45'0 0.8
2018-Jun-17 06:30N 45°39' W 122°45'0 0.0
2018-Jun-17 06:00N 45°39' W 122°45'0 0.0
2018-Jun-17 05:30N 45°39' W 122°45'1 1.1
2018-Jun-17 05:00N 45°39' W 122°45'0 0.2
2018-Jun-17 04:30N 45°39' W 122°44'0 0.0
2018-Jun-17 04:01N 45°39' W 122°44'0 0.0
2018-Jun-17 03:30N 45°39' W 122°44'0 0.0
2018-Jun-17 03:00N 45°39' W 122°44'0 0.0
2018-Jun-17 02:30N 45°39' W 122°44'0 0.0
2018-Jun-17 02:00N 45°39' W 122°44'1 2.5
2018-Jun-17 01:30N 45°39' W 122°46'2 4.9
2018-Jun-17 01:01N 45°36' W 122°47'3 6.9
2018-Jun-17 00:30N 45°34' W 122°44'3 5.0
2018-Jun-17 00:00N 45°32' W 122°41'0 0.6
2018-Jun-16 23:30N 45°32' W 122°40'2 3.0
2018-Jun-16 23:00N 45°33' W 122°42'2 3.5
2018-Jun-16 22:31N 45°34' W 122°44'0 0.0
2018-Jun-16 22:00N 45°34' W 122°44'2 4.8
2018-Jun-16 21:31N 45°36' W 122°47'3 6.8
2018-Jun-16 21:01N 45°39' W 122°46'1 1.2
2018-Jun-16 20:30N 45°39' W 122°45'0 0.0
2018-Jun-16 20:01N 45°39' W 122°45'0 0.0
2018-Jun-16 19:28N 45°39' W 122°45'0 0.0
2018-Jun-16 19:00N 45°39' W 122°45'0 0.0
2018-Jun-16 18:31N 45°39' W 122°45'0 0.0
2018-Jun-16 18:00N 45°39' W 122°45'0 0.0
2018-Jun-16 17:30N 45°39' W 122°45'0 0.0
2018-Jun-16 17:00N 45°39' W 122°45'0 0.1
2018-Jun-16 16:30N 45°39' W 122°45'1 1.0
2018-Jun-16 16:00N 45°39' W 122°45'2 3.8
2018-Jun-16 15:30N 45°38' W 122°42'3 5.6
2018-Jun-16 15:01N 45°39' W 122°46'3 6.4
2018-Jun-16 14:30N 45°36' W 122°47'3 5.6
2018-Jun-16 14:00N 45°34' W 122°44'0 0.1
2018-Jun-16 13:30N 45°34' W 122°44'3 6.5
2018-Jun-16 13:00N 45°37' W 122°47'3 6.3
2018-Jun-16 12:30N 45°39' W 122°45'0 0.7
2018-Jun-16 12:00N 45°39' W 122°45'0 0.0
2018-Jun-16 11:31N 45°39' W 122°45'1 2.0
2018-Jun-16 11:01N 45°39' W 122°46'1 2.4
2018-Jun-16 10:30N 45°39' W 122°45'0 0.4
2018-Jun-16 10:00N 45°39' W 122°44'0 0.5
2018-Jun-16 09:30N 45°39' W 122°44'0 0.0
2018-Jun-16 09:01N 45°39' W 122°44'0 0.0
2018-Jun-16 08:30N 45°39' W 122°44'0 0.0
2018-Jun-16 08:01N 45°39' W 122°44'0 0.0
2018-Jun-16 07:30N 45°39' W 122°44'0 0.0
2018-Jun-16 06:59N 45°39' W 122°44'0 0.0
2018-Jun-16 06:31N 45°39' W 122°44'0 0.6
2018-Jun-16 06:00N 45°39' W 122°45'0 0.0
2018-Jun-16 05:30N 45°39' W 122°45'0 0.0
2018-Jun-16 05:01N 45°39' W 122°45'1 1.2
2018-Jun-16 04:28N 45°39' W 122°45'0 0.0
2018-Jun-16 03:54N 45°39' W 122°45'0 0.5
2018-Jun-16 03:31N 45°39' W 122°45'0 0.5
2018-Jun-16 03:01N 45°39' W 122°45'1 1.6
2018-Jun-16 02:30N 45°39' W 122°45'3 4.2
2018-Jun-16 01:53N 45°37' W 122°47'2 6.4
2018-Jun-16 01:30N 45°35' W 122°46'1 2.5
2018-Jun-16 01:01N 45°34' W 122°44'1 2.8
2018-Jun-16 00:30N 45°35' W 122°46'3 6.7
2018-Jun-16 00:00N 45°38' W 122°47'2 3.6
2018-Jun-15 23:30N 45°39' W 122°44'0 0.2
2018-Jun-15 23:00N 45°39' W 122°45'1 2.8
2018-Jun-15 22:30N 45°38' W 122°43'2 3.8
2018-Jun-15 22:01N 45°39' W 122°45'2 4.4
2018-Jun-15 21:31N 45°38' W 122°42'1 2.7
2018-Jun-15 21:00N 45°39' W 122°44'0 0.5
2018-Jun-15 20:30N 45°39' W 122°44'0 0.0
2018-Jun-15 20:00N 45°39' W 122°44'0 0.0
2018-Jun-15 19:30N 45°39' W 122°44'0 0.0
2018-Jun-15 19:01N 45°39' W 122°44'0 0.0
2018-Jun-15 18:30N 45°39' W 122°44'0 0.0
2018-Jun-15 18:00N 45°39' W 122°44'0 0.0
2018-Jun-15 17:30N 45°39' W 122°44'0 0.0
2018-Jun-15 17:01N 45°39' W 122°44'0 0.0
2018-Jun-15 16:31N 45°39' W 122°44'1 1.2
2018-Jun-15 15:51N 45°38' W 122°43'0 1.3
2018-Jun-15 15:30N 45°38' W 122°44'0 0.2
2018-Jun-15 15:00N 45°39' W 122°44'0 0.3
2018-Jun-15 14:30N 45°39' W 122°44'1 2.5
2018-Jun-15 14:01N 45°38' W 122°43'0 0.8
2018-Jun-15 13:30N 45°38' W 122°42'0 0.0
2018-Jun-15 13:00N 45°38' W 122°42'0 0.0
2018-Jun-15 12:30N 45°38' W 122°42'0 0.0
2018-Jun-15 11:49N 45°38' W 122°42'0 0.0
2018-Jun-15 11:30N 45°38' W 122°42'0 0.0
2018-Jun-15 11:00N 45°38' W 122°42'2 4.5
2018-Jun-15 10:30N 45°39' W 122°45'1 0.7
2018-Jun-15 09:37N 45°39' W 122°44'0 0.0
2018-Jun-15 09:30N 45°39' W 122°44'0 0.0
2018-Jun-15 09:00N 45°39' W 122°44'0 0.0
2018-Jun-15 08:30N 45°39' W 122°44'0 0.0
2018-Jun-15 08:00N 45°39' W 122°44'0 0.0
2018-Jun-15 07:19N 45°39' W 122°44'0 0.0
2018-Jun-15 06:59N 45°39' W 122°44'0 0.0
2018-Jun-15 06:31N 45°39' W 122°44'0 0.0
2018-Jun-15 06:01N 45°39' W 122°44'0 0.0
2018-Jun-15 05:31N 45°39' W 122°44'0 0.0
2018-Jun-15 05:00N 45°39' W 122°44'0 0.0
2018-Jun-15 04:30N 45°39' W 122°44'0 0.0
2018-Jun-15 04:00N 45°39' W 122°44'0 0.2
2018-Jun-15 03:19N 45°39' W 122°45'0 0.3
2018-Jun-15 03:00N 45°39' W 122°45'0 0.1
2018-Jun-15 02:31N 45°39' W 122°45'0 0.9
2018-Jun-15 02:01N 45°39' W 122°45'1 1.3
2018-Jun-15 01:30N 45°40' W 122°46'1 1.4
2018-Jun-15 01:00N 45°39' W 122°46'3 6.1
2018-Jun-15 00:31N 45°36' W 122°47'3 7.0
2018-Jun-15 00:00N 45°34' W 122°43'3 5.0
2018-Jun-14 23:30N 45°32' W 122°40'0 1.0
2018-Jun-14 23:01N 45°32' W 122°41'3 5.1
2018-Jun-14 22:29N 45°34' W 122°44'0 0.0
2018-Jun-14 22:00N 45°34' W 122°44'0 0.0
2018-Jun-14 21:31N 45°34' W 122°44'0 0.0
2018-Jun-14 21:00N 45°34' W 122°44'0 0.0
2018-Jun-14 20:31N 45°34' W 122°44'0 0.0
2018-Jun-14 20:00N 45°34' W 122°44'0 0.0
2018-Jun-14 19:31N 45°34' W 122°44'0 0.0
2018-Jun-14 19:00N 45°34' W 122°44'0 0.3
2018-Jun-14 18:30N 45°34' W 122°44'1 2.6
2018-Jun-14 18:01N 45°35' W 122°46'3 6.4
2018-Jun-14 17:30N 45°38' W 122°47'2 4.1
2018-Jun-14 17:00N 45°39' W 122°45'0 0.5
2018-Jun-14 16:30N 45°39' W 122°44'0 0.0
2018-Jun-14 16:00N 45°39' W 122°44'0 0.0
2018-Jun-14 15:30N 45°39' W 122°44'0 0.0
2018-Jun-14 15:00N 45°39' W 122°44'0 0.0
2018-Jun-14 14:22N 45°39' W 122°44'0 0.9
2018-Jun-14 14:00N 45°39' W 122°44'0 0.6
2018-Jun-14 13:30N 45°39' W 122°45'1 2.2
2018-Jun-14 13:00N 45°39' W 122°46'1 2.7
2018-Jun-14 12:30N 45°39' W 122°44'1 2.5
2018-Jun-14 12:00N 45°38' W 122°43'0 0.2
2018-Jun-14 11:30N 45°38' W 122°43'2 4.8
2018-Jun-14 11:00N 45°39' W 122°46'0 0.8
2018-Jun-14 10:30N 45°38' W 122°46'1 2.9
2018-Jun-14 10:00N 45°37' W 122°47'2 4.7
2018-Jun-14 09:30N 45°39' W 122°45'1 1.4
2018-Jun-14 09:00N 45°39' W 122°44'0 0.1
2018-Jun-14 08:30N 45°39' W 122°44'0 0.6
2018-Jun-14 08:00N 45°39' W 122°44'0 0.0
2018-Jun-14 07:30N 45°39' W 122°44'0 0.3
2018-Jun-14 07:00N 45°39' W 122°45'1 1.9
2018-Jun-14 06:30N 45°39' W 122°46'3 6.4
2018-Jun-14 06:00N 45°36' W 122°47'3 5.2
2018-Jun-14 05:30N 45°34' W 122°44'2 4.6
2018-Jun-14 05:00N 45°36' W 122°47'3 6.7
2018-Jun-14 04:30N 45°39' W 122°46'1 1.6
2018-Jun-14 04:00N 45°39' W 122°45'3 5.8
2018-Jun-14 03:27N 45°42' W 122°46'3 6.1
2018-Jun-14 03:00N 45°45' W 122°46'3 6.1
2018-Jun-14 02:30N 45°47' W 122°47'3 5.9
2018-Jun-14 02:00N 45°50' W 122°47'3 6.1
2018-Jun-14 01:30N 45°53' W 122°48'1 2.0
2018-Jun-14 01:00N 45°54' W 122°49'0 0.0
2018-Jun-14 00:30N 45°54' W 122°49'2 4.4
2018-Jun-14 00:00N 45°52' W 122°47'4 8.4
2018-Jun-13 23:30N 45°48' W 122°47'4 8.5
2018-Jun-13 23:00N 45°44' W 122°46'4 8.6
2018-Jun-13 22:30N 45°40' W 122°46'1 1.1
2018-Jun-13 22:00N 45°39' W 122°45'3 5.6
2018-Jun-13 21:30N 45°37' W 122°47'3 6.3
2018-Jun-13 21:00N 45°34' W 122°44'0 0.5
2018-Jun-13 20:30N 45°34' W 122°44'3 5.7
2018-Jun-13 20:00N 45°36' W 122°47'3 6.0
2018-Jun-13 19:30N 45°39' W 122°45'1 1.1
2018-Jun-13 19:00N 45°39' W 122°44'0 0.0
2018-Jun-13 18:30N 45°39' W 122°44'0 0.0
2018-Jun-13 18:00N 45°39' W 122°44'0 0.0
2018-Jun-13 17:30N 45°39' W 122°44'0 0.5
2018-Jun-13 16:57N 45°39' W 122°45'0 1.1
2018-Jun-13 16:30N 45°39' W 122°44'1 2.5
2018-Jun-13 16:00N 45°39' W 122°46'3 7.0
2018-Jun-13 15:30N 45°36' W 122°46'3 7.0
2018-Jun-13 15:00N 45°33' W 122°43'2 3.7
2018-Jun-13 14:30N 45°32' W 122°41'1 2.7
2018-Jun-13 14:00N 45°33' W 122°42'2 3.6
2018-Jun-13 13:30N 45°34' W 122°44'1 1.7
2018-Jun-13 13:00N 45°35' W 122°45'3 6.6
2018-Jun-13 12:30N 45°37' W 122°47'3 5.0
2018-Jun-13 12:00N 45°39' W 122°45'0 0.0
2018-Jun-13 11:30N 45°39' W 122°45'1 1.3
2018-Jun-13 11:00N 45°39' W 122°45'4 8.4
2018-Jun-13 10:30N 45°37' W 122°40'3 5.4
2018-Jun-13 10:01N 45°36' W 122°36'510.1
2018-Jun-13 09:30N 45°35' W 122°29'3 5.1
2018-Jun-13 09:00N 45°34' W 122°26'0 0.1
2018-Jun-13 08:30N 45°34' W 122°26'2 4.8
2018-Jun-13 08:00N 45°35' W 122°29'3 6.3
2018-Jun-13 07:30N 45°36' W 122°33'3 6.2
2018-Jun-13 07:00N 45°36' W 122°38'3 6.2
2018-Jun-13 06:28N 45°38' W 122°42'3 6.4
2018-Jun-13 06:00N 45°40' W 122°45'1 2.0
2018-Jun-13 05:30N 45°39' W 122°44'0 0.1
2018-Jun-13 05:00N 45°39' W 122°44'0 0.1
2018-Jun-13 04:30N 45°39' W 122°44'0 0.3
2018-Jun-13 03:52N 45°39' W 122°45'1 1.6
2018-Jun-13 03:30N 45°39' W 122°45'3 5.9
2018-Jun-13 03:00N 45°36' W 122°47'3 3.9
2018-Jun-13 02:12N 45°34' W 122°44'0 0.0
2018-Jun-13 02:00N 45°34' W 122°44'0 0.0
2018-Jun-13 01:30N 45°34' W 122°44'0 0.1
2018-Jun-13 01:00N 45°34' W 122°44'0 0.0
2018-Jun-13 00:31N 45°34' W 122°44'0 0.0
2018-Jun-13 00:00N 45°34' W 122°44'0 0.0
2018-Jun-12 23:30N 45°34' W 122°44'0 0.0
2018-Jun-12 23:00N 45°34' W 122°44'0 0.0
2018-Jun-12 22:30N 45°34' W 122°44'0 0.0
2018-Jun-12 22:00N 45°34' W 122°44'1 1.4
2018-Jun-12 21:30N 45°35' W 122°45'4 7.3
2018-Jun-12 21:00N 45°38' W 122°47'2 4.1
2018-Jun-12 20:30N 45°39' W 122°45'2 3.9
2018-Jun-12 20:00N 45°38' W 122°43'0 0.3
2018-Jun-12 19:31N 45°38' W 122°43'1 2.4
2018-Jun-12 19:00N 45°39' W 122°44'0 0.0
2018-Jun-12 18:30N 45°39' W 122°44'0 0.0
2018-Jun-12 18:00N 45°39' W 122°44'0 0.4
2018-Jun-12 17:24N 45°39' W 122°45'  
Track history (hours):
 
Tides and Currents Weather Stations Pressure Air Temp Water Temp Dewpoint Dewpoint Depression Visibility Wind Speed Wind Dir Waves Ship Positions

Maverick

Owner: Tidewater Barge Lines Inc., Vancouver, WA. More information available from US FCC via Universal Licensing System and Coast Guard Vessel Documentation Center.

Last reported at 2018-Jun-22 17:00 UTC. Time now 2018-Jun-22 17:11 UTC.
Position N 45°39' W 122°44'.

Length 25 m.

Type: Towing. MMSI: 2142722.

Date/timePositionNaut miles runAvg speedWind from/ knotsBaromVisibWave heightAir tempDewpointWater temp
2018-Jun-22 17:00N 45°39' W 122°44'0 0.0
2018-Jun-22 16:30N 45°39' W 122°44'0 0.0
2018-Jun-22 16:00N 45°39' W 122°44'0 0.0
2018-Jun-22 15:30N 45°39' W 122°44'0 0.0
2018-Jun-22 15:00N 45°39' W 122°44'0 0.0
2018-Jun-22 14:30N 45°39' W 122°44'0 0.0
2018-Jun-22 14:00N 45°39' W 122°44'0 0.0
2018-Jun-22 13:30N 45°39' W 122°44'0 0.0
2018-Jun-22 13:00N 45°39' W 122°44'0 0.0
2018-Jun-22 12:27N 45°39' W 122°44'0 0.0
2018-Jun-22 12:00N 45°39' W 122°44'0 0.0
2018-Jun-22 11:30N 45°39' W 122°44'0 0.0
2018-Jun-22 11:00N 45°39' W 122°44'0 0.0
2018-Jun-22 10:30N 45°39' W 122°44'0 0.0
2018-Jun-22 10:00N 45°39' W 122°44'0 0.0
2018-Jun-22 09:30N 45°39' W 122°44'0 0.0
2018-Jun-22 09:00N 45°39' W 122°44'0 0.0
2018-Jun-22 08:23N 45°39' W 122°44'0 0.0
2018-Jun-22 08:00N 45°39' W 122°44'0 0.0
2018-Jun-22 07:30N 45°39' W 122°44'0 0.0
2018-Jun-22 06:59N 45°39' W 122°44'1 3.0
2018-Jun-22 06:30N 45°39' W 122°46'5 6.6
2018-Jun-22 05:43N 45°34' W 122°44'0 1.2
2018-Jun-22 05:30N 45°34' W 122°44'0 0.0
2018-Jun-22 05:00N 45°34' W 122°44'0 0.0
2018-Jun-22 04:30N 45°34' W 122°44'0 0.0
2018-Jun-22 04:00N 45°34' W 122°44'0 0.0
2018-Jun-22 03:30N 45°34' W 122°44'0 0.0
2018-Jun-22 03:00N 45°34' W 122°44'0 0.1
2018-Jun-22 02:29N 45°34' W 122°44'4 7.7
2018-Jun-22 02:00N 45°37' W 122°47'3 5.7
2018-Jun-22 01:30N 45°39' W 122°44'0 0.1
2018-Jun-22 01:00N 45°39' W 122°44'0 0.0
2018-Jun-22 00:30N 45°39' W 122°44'0 0.0
2018-Jun-22 00:00N 45°39' W 122°44'0 0.0
2018-Jun-21 23:30N 45°39' W 122°44'0 0.0
2018-Jun-21 23:00N 45°39' W 122°44'0 0.0
2018-Jun-21 22:30N 45°39' W 122°44'0 0.0
2018-Jun-21 21:58N 45°39' W 122°44'0 0.0
2018-Jun-21 21:30N 45°39' W 122°44'0 0.0
2018-Jun-21 21:00N 45°39' W 122°44'2 4.5
2018-Jun-21 20:30N 45°38' W 122°47'3 6.7
2018-Jun-21 20:00N 45°35' W 122°45'2 3.0
2018-Jun-21 19:30N 45°34' W 122°44'2 4.4
2018-Jun-21 19:00N 45°35' W 122°46'2 3.6
2018-Jun-21 18:30N 45°37' W 122°47'3 5.4
2018-Jun-21 18:00N 45°39' W 122°45'0 0.7
2018-Jun-21 17:30N 45°39' W 122°44'0 0.5
2018-Jun-21 17:00N 45°39' W 122°45'0 0.3
2018-Jun-21 16:30N 45°39' W 122°45'0 0.3
2018-Jun-21 16:00N 45°39' W 122°44'3 5.1
2018-Jun-21 15:30N 45°37' W 122°47'1 2.3
2018-Jun-21 15:00N 45°38' W 122°47'3 6.6
2018-Jun-21 14:30N 45°38' W 122°42'3 6.9
2018-Jun-21 14:00N 45°36' W 122°38'4 8.7
2018-Jun-21 13:30N 45°35' W 122°32'4 8.4
2018-Jun-21 12:59N 45°34' W 122°26'2 5.0
2018-Jun-21 12:30N 45°34' W 122°22'5 8.9
2018-Jun-21 11:55N 45°33' W 122°15'4 9.0
2018-Jun-21 11:30N 45°35' W 122°11'4 8.2
2018-Jun-21 10:59N 45°36' W 122°05'3 0.5
2018-Jun-21 06:11N 45°37' W 122°02'2 5.2
2018-Jun-21 05:47N 45°36' W 122°04'3 6.5
2018-Jun-21 05:23N 45°35' W 122°08'3 6.5
2018-Jun-21 05:00N 45°34' W 122°11'3 6.4
2018-Jun-21 04:30N 45°33' W 122°15'3 6.2
2018-Jun-21 04:00N 45°33' W 122°19'3 5.4
2018-Jun-21 03:30N 45°35' W 122°23'3 5.5
2018-Jun-21 03:00N 45°34' W 122°27'3 5.1
2018-Jun-21 02:30N 45°35' W 122°30'3 6.7
2018-Jun-21 02:00N 45°36' W 122°34'3 6.7
2018-Jun-21 01:30N 45°37' W 122°39'3 5.7
2018-Jun-21 01:00N 45°38' W 122°42'3 5.0
2018-Jun-21 00:30N 45°39' W 122°45'1 1.6
2018-Jun-21 00:00N 45°39' W 122°45'0 0.1
2018-Jun-20 23:19N 45°39' W 122°45'0 0.1
2018-Jun-20 22:49N 45°39' W 122°45'0 0.9
2018-Jun-20 22:23N 45°39' W 122°45'0 0.7
2018-Jun-20 22:00N 45°39' W 122°45'0 0.8
2018-Jun-20 21:28N 45°39' W 122°45'2 4.2
2018-Jun-20 21:00N 45°38' W 122°47'2 3.8
2018-Jun-20 20:27N 45°36' W 122°47'2 4.0
2018-Jun-20 20:00N 45°34' W 122°45'1 0.9
2018-Jun-20 19:25N 45°34' W 122°44'0 0.2
2018-Jun-20 19:00N 45°34' W 122°44'0 0.0
2018-Jun-20 18:24N 45°34' W 122°44'1 1.6
2018-Jun-20 18:00N 45°34' W 122°45'4 6.0
2018-Jun-20 17:24N 45°37' W 122°47'3 5.7
2018-Jun-20 16:58N 45°39' W 122°45'1 2.4
2018-Jun-20 16:24N 45°38' W 122°46'0 0.1
2018-Jun-20 15:56N 45°38' W 122°46'0 0.0
2018-Jun-20 15:24N 45°38' W 122°46'0 0.0
2018-Jun-20 14:57N 45°38' W 122°46'1 3.2
2018-Jun-20 14:29N 45°39' W 122°44'0 0.0
2018-Jun-20 14:00N 45°39' W 122°44'0 0.0
2018-Jun-20 13:30N 45°39' W 122°44'0 0.0
2018-Jun-20 12:59N 45°39' W 122°44'0 0.0
2018-Jun-20 12:24N 45°39' W 122°44'0 0.0
2018-Jun-20 11:59N 45°39' W 122°44'0 0.0
2018-Jun-20 11:28N 45°39' W 122°44'0 0.0
2018-Jun-20 10:46N 45°39' W 122°44'0 0.0
2018-Jun-20 10:30N 45°39' W 122°44'0 0.0
2018-Jun-20 10:00N 45°39' W 122°44'1 2.7
2018-Jun-20 09:30N 45°38' W 122°43'0 0.2
2018-Jun-20 09:01N 45°38' W 122°43'3 5.2
2018-Jun-20 08:31N 45°38' W 122°47'1 2.7
2018-Jun-20 08:01N 45°39' W 122°45'0 0.8
2018-Jun-20 07:30N 45°39' W 122°44'0 0.5
2018-Jun-20 06:59N 45°39' W 122°44'0 0.0
2018-Jun-20 05:35N 45°39' W 122°44'0 0.0
2018-Jun-20 05:29N 45°39' W 122°44'0 0.0
2018-Jun-20 05:00N 45°39' W 122°44'0 0.0
2018-Jun-20 04:30N 45°39' W 122°44'0 0.0
2018-Jun-20 04:00N 45°39' W 122°44'0 0.0
2018-Jun-20 03:20N 45°39' W 122°44'0 0.0
2018-Jun-20 03:00N 45°39' W 122°44'0 1.0
2018-Jun-20 02:30N 45°39' W 122°44'1 1.4
2018-Jun-20 02:00N 45°38' W 122°43'2 4.5
2018-Jun-20 01:31N 45°39' W 122°46'2 3.7
2018-Jun-20 01:00N 45°38' W 122°47'4 7.2
2018-Jun-20 00:30N 45°34' W 122°45'0 1.0
2018-Jun-20 00:00N 45°34' W 122°44'1 1.5
2018-Jun-19 23:30N 45°35' W 122°45'3 6.5
2018-Jun-19 23:00N 45°37' W 122°47'3 5.1
2018-Jun-19 22:31N 45°39' W 122°44'1 2.3
2018-Jun-19 22:00N 45°39' W 122°46'4 5.1
2018-Jun-19 21:09N 45°35' W 122°45'1 4.7
2018-Jun-19 21:00N 45°34' W 122°44'0 0.2
2018-Jun-19 20:30N 45°34' W 122°44'0 0.0
2018-Jun-19 20:00N 45°34' W 122°44'2 5.0
2018-Jun-19 19:30N 45°36' W 122°47'3 6.6
2018-Jun-19 19:00N 45°39' W 122°46'1 1.8
2018-Jun-19 18:30N 45°39' W 122°45'0 0.1
2018-Jun-19 18:00N 45°39' W 122°45'0 0.0
2018-Jun-19 17:30N 45°39' W 122°45'0 0.0
2018-Jun-19 17:00N 45°39' W 122°45'0 0.1
2018-Jun-19 16:19N 45°39' W 122°45'1 3.6
2018-Jun-19 16:00N 45°39' W 122°46'1 1.5
2018-Jun-19 15:28N 45°39' W 122°46'1 2.0
2018-Jun-19 15:00N 45°39' W 122°44'1 1.1
2018-Jun-19 14:30N 45°39' W 122°45'2 3.9
2018-Jun-19 14:00N 45°38' W 122°43'2 4.3
2018-Jun-19 13:30N 45°39' W 122°46'3 6.5
2018-Jun-19 13:00N 45°36' W 122°47'3 5.6
2018-Jun-19 12:31N 45°34' W 122°44'3 5.9
2018-Jun-19 12:00N 45°32' W 122°41'0 0.3
2018-Jun-19 11:30N 45°32' W 122°41'3 5.8
2018-Jun-19 11:00N 45°34' W 122°44'1 2.6
2018-Jun-19 10:30N 45°33' W 122°43'2 3.8
2018-Jun-19 10:00N 45°32' W 122°40'3 6.0
2018-Jun-19 09:31N 45°34' W 122°44'1 2.5
2018-Jun-19 09:00N 45°35' W 122°45'3 5.7
2018-Jun-19 08:30N 45°37' W 122°47'2 5.0
2018-Jun-19 08:00N 45°39' W 122°45'1 2.5
2018-Jun-19 07:30N 45°38' W 122°44'1 2.4
2018-Jun-19 07:00N 45°38' W 122°42'0 0.0
2018-Jun-19 06:30N 45°38' W 122°42'0 0.1
2018-Jun-19 06:00N 45°38' W 122°42'2 3.7
2018-Jun-19 05:30N 45°39' W 122°45'0 0.2
2018-Jun-19 05:00N 45°39' W 122°45'0 0.1
2018-Jun-19 04:30N 45°39' W 122°45'0 0.9
2018-Jun-19 04:01N 45°39' W 122°45'1 1.1
2018-Jun-19 03:30N 45°39' W 122°44'0 0.0
2018-Jun-19 03:00N 45°39' W 122°44'0 0.0
2018-Jun-19 02:31N 45°39' W 122°44'0 0.0
2018-Jun-19 02:00N 45°39' W 122°44'0 0.0
2018-Jun-19 01:31N 45°39' W 122°44'0 0.0
2018-Jun-19 01:00N 45°39' W 122°44'0 0.0
2018-Jun-19 00:30N 45°39' W 122°44'0 0.0
2018-Jun-19 00:00N 45°39' W 122°44'0 0.0
2018-Jun-18 23:30N 45°39' W 122°44'0 0.8
2018-Jun-18 23:00N 45°38' W 122°44'0 0.0
2018-Jun-18 22:30N 45°39' W 122°44'0 0.2
2018-Jun-18 22:01N 45°39' W 122°44'1 2.4
2018-Jun-18 21:30N 45°38' W 122°43'2 4.0
2018-Jun-18 20:59N 45°39' W 122°45'1 1.9
2018-Jun-18 20:30N 45°39' W 122°46'3 6.7
2018-Jun-18 20:00N 45°35' W 122°46'2 4.0
2018-Jun-18 19:30N 45°34' W 122°44'3 6.4
2018-Jun-18 19:00N 45°32' W 122°40'0 0.0
2018-Jun-18 18:30N 45°32' W 122°40'2 3.0
2018-Jun-18 18:00N 45°33' W 122°42'2 3.5
2018-Jun-18 17:30N 45°34' W 122°44'0 0.0
2018-Jun-18 17:00N 45°34' W 122°44'0 0.0
2018-Jun-18 16:30N 45°34' W 122°44'0 0.0
2018-Jun-18 16:00N 45°34' W 122°44'0 0.0
2018-Jun-18 15:30N 45°34' W 122°44'0 0.0
2018-Jun-18 15:00N 45°34' W 122°44'0 0.0
2018-Jun-18 14:30N 45°34' W 122°44'0 0.0
2018-Jun-18 14:00N 45°34' W 122°44'0 0.0
2018-Jun-18 13:31N 45°34' W 122°44'0 0.0
2018-Jun-18 13:00N 45°34' W 122°44'0 0.0
2018-Jun-18 12:30N 45°34' W 122°44'0 0.2
2018-Jun-18 12:00N 45°34' W 122°44'2 4.5
2018-Jun-18 11:30N 45°36' W 122°47'3 6.0
2018-Jun-18 11:00N 45°39' W 122°46'1 2.8
2018-Jun-18 10:30N 45°39' W 122°44'0 0.0
2018-Jun-18 10:00N 45°39' W 122°44'0 0.0
2018-Jun-18 09:26N 45°39' W 122°44'0 0.0
2018-Jun-18 09:01N 45°39' W 122°44'0 0.0
2018-Jun-18 08:30N 45°39' W 122°44'0 0.0
2018-Jun-18 08:00N 45°39' W 122°44'0 0.0
2018-Jun-18 07:30N 45°39' W 122°44'1 2.5
2018-Jun-18 06:59N 45°39' W 122°46'1 1.9
2018-Jun-18 06:30N 45°39' W 122°45'2 3.9
2018-Jun-18 06:01N 45°38' W 122°43'2 4.0
2018-Jun-18 05:30N 45°39' W 122°45'1 1.9
2018-Jun-18 05:01N 45°38' W 122°46'2 4.0
2018-Jun-18 04:29N 45°36' W 122°47'3 6.8
2018-Jun-18 04:00N 45°34' W 122°44'1 2.4
2018-Jun-18 03:31N 45°35' W 122°45'2 3.9
2018-Jun-18 03:00N 45°36' W 122°47'3 5.1
2018-Jun-18 02:25N 45°39' W 122°45'2 4.4
2018-Jun-18 02:00N 45°38' W 122°42'2 3.2
2018-Jun-18 01:30N 45°39' W 122°44'0 0.2
2018-Jun-18 01:00N 45°39' W 122°44'0 0.0
2018-Jun-18 00:30N 45°39' W 122°44'0 0.0
2018-Jun-18 00:00N 45°39' W 122°44'0 0.0
2018-Jun-17 23:30N 45°39' W 122°44'1 1.8
2018-Jun-17 22:46N 45°38' W 122°43'0 0.2
2018-Jun-17 22:30N 45°38' W 122°43'2 4.9
2018-Jun-17 22:00N 45°39' W 122°46'1 1.5
2018-Jun-17 21:28N 45°39' W 122°46'3 5.8
2018-Jun-17 21:00N 45°38' W 122°42'0 0.5
2018-Jun-17 20:23N 45°38' W 122°43'0 0.4
2018-Jun-17 20:01N 45°38' W 122°43'0 0.4
2018-Jun-17 19:30N 45°38' W 122°43'0 0.0
2018-Jun-17 19:00N 45°38' W 122°43'0 0.2
2018-Jun-17 18:30N 45°38' W 122°43'1 2.5
2018-Jun-17 18:00N 45°39' W 122°44'0 0.0
2018-Jun-17 17:30N 45°39' W 122°44'0 0.0
2018-Jun-17 17:00N 45°39' W 122°44'0 0.0
2018-Jun-17 16:30N 45°39' W 122°44'0 0.0
2018-Jun-17 15:56N 45°39' W 122°44'0 0.0
2018-Jun-17 15:30N 45°39' W 122°44'0 0.0
2018-Jun-17 15:00N 45°39' W 122°44'0 0.0
2018-Jun-17 14:29N 45°39' W 122°44'0 0.0
2018-Jun-17 14:00N 45°39' W 122°44'0 0.0
2018-Jun-17 13:30N 45°39' W 122°44'0 0.0
2018-Jun-17 13:00N 45°39' W 122°44'0 0.0
2018-Jun-17 12:30N 45°39' W 122°44'0 0.0
2018-Jun-17 12:00N 45°39' W 122°44'1 2.6
2018-Jun-17 11:31N 45°39' W 122°46'1 1.0
2018-Jun-17 11:00N 45°39' W 122°46'1 2.5
2018-Jun-17 10:30N 45°39' W 122°44'0 0.4
2018-Jun-17 09:44N 45°39' W 122°44'0 0.0
2018-Jun-17 09:30N 45°39' W 122°44'0 0.0
2018-Jun-17 09:00N 45°39' W 122°44'0 0.0
2018-Jun-17 08:30N 45°39' W 122°44'0 0.2
2018-Jun-17 08:00N 45°39' W 122°45'1 1.2
2018-Jun-17 07:30N 45°39' W 122°45'0 0.8
2018-Jun-17 07:00N 45°39' W 122°45'0 0.8
2018-Jun-17 06:30N 45°39' W 122°45'0 0.0
2018-Jun-17 06:00N 45°39' W 122°45'0 0.0
2018-Jun-17 05:30N 45°39' W 122°45'1 1.1
2018-Jun-17 05:00N 45°39' W 122°45'0 0.2
2018-Jun-17 04:30N 45°39' W 122°44'0 0.0
2018-Jun-17 04:01N 45°39' W 122°44'0 0.0
2018-Jun-17 03:30N 45°39' W 122°44'0 0.0
2018-Jun-17 03:00N 45°39' W 122°44'0 0.0
2018-Jun-17 02:30N 45°39' W 122°44'0 0.0
2018-Jun-17 02:00N 45°39' W 122°44'1 2.5
2018-Jun-17 01:30N 45°39' W 122°46'2 4.9
2018-Jun-17 01:01N 45°36' W 122°47'3 6.9
2018-Jun-17 00:30N 45°34' W 122°44'3 5.0
2018-Jun-17 00:00N 45°32' W 122°41'0 0.6
2018-Jun-16 23:30N 45°32' W 122°40'2 3.0
2018-Jun-16 23:00N 45°33' W 122°42'2 3.5
2018-Jun-16 22:31N 45°34' W 122°44'0 0.0
2018-Jun-16 22:00N 45°34' W 122°44'2 4.8
2018-Jun-16 21:31N 45°36' W 122°47'3 6.8
2018-Jun-16 21:01N 45°39' W 122°46'1 1.2
2018-Jun-16 20:30N 45°39' W 122°45'0 0.0
2018-Jun-16 20:01N 45°39' W 122°45'0 0.0
2018-Jun-16 19:28N 45°39' W 122°45'0 0.0
2018-Jun-16 19:00N 45°39' W 122°45'0 0.0
2018-Jun-16 18:31N 45°39' W 122°45'0 0.0
2018-Jun-16 18:00N 45°39' W 122°45'0 0.0
2018-Jun-16 17:30N 45°39' W 122°45'0 0.0
2018-Jun-16 17:00N 45°39' W 122°45'0 0.1
2018-Jun-16 16:30N 45°39' W 122°45'1 1.0
2018-Jun-16 16:00N 45°39' W 122°45'2 3.8
2018-Jun-16 15:30N 45°38' W 122°42'3 5.6
2018-Jun-16 15:01N 45°39' W 122°46'3 6.4
2018-Jun-16 14:30N 45°36' W 122°47'3 5.6
2018-Jun-16 14:00N 45°34' W 122°44'0 0.1
2018-Jun-16 13:30N 45°34' W 122°44'3 6.5
2018-Jun-16 13:00N 45°37' W 122°47'3 6.3
2018-Jun-16 12:30N 45°39' W 122°45'0 0.7
2018-Jun-16 12:00N 45°39' W 122°45'0 0.0
2018-Jun-16 11:31N 45°39' W 122°45'1 2.0
2018-Jun-16 11:01N 45°39' W 122°46'1 2.4
2018-Jun-16 10:30N 45°39' W 122°45'0 0.4
2018-Jun-16 10:00N 45°39' W 122°44'0 0.5
2018-Jun-16 09:30N 45°39' W 122°44'0 0.0
2018-Jun-16 09:01N 45°39' W 122°44'0 0.0
2018-Jun-16 08:30N 45°39' W 122°44'0 0.0
2018-Jun-16 08:01N 45°39' W 122°44'0 0.0
2018-Jun-16 07:30N 45°39' W 122°44'0 0.0
2018-Jun-16 06:59N 45°39' W 122°44'0 0.0
2018-Jun-16 06:31N 45°39' W 122°44'0 0.6
2018-Jun-16 06:00N 45°39' W 122°45'0 0.0
2018-Jun-16 05:30N 45°39' W 122°45'0 0.0
2018-Jun-16 05:01N 45°39' W 122°45'1 1.2
2018-Jun-16 04:28N 45°39' W 122°45'0 0.0
2018-Jun-16 03:54N 45°39' W 122°45'0 0.5
2018-Jun-16 03:31N 45°39' W 122°45'0 0.5
2018-Jun-16 03:01N 45°39' W 122°45'1 1.6
2018-Jun-16 02:30N 45°39' W 122°45'3 4.2
2018-Jun-16 01:53N 45°37' W 122°47'2 6.4
2018-Jun-16 01:30N 45°35' W 122°46'1 2.5
2018-Jun-16 01:01N 45°34' W 122°44'1 2.8
2018-Jun-16 00:30N 45°35' W 122°46'3 6.7
2018-Jun-16 00:00N 45°38' W 122°47'2 3.6
2018-Jun-15 23:30N 45°39' W 122°44'0 0.2
2018-Jun-15 23:00N 45°39' W 122°45'1 2.8
2018-Jun-15 22:30N 45°38' W 122°43'2 3.8
2018-Jun-15 22:01N 45°39' W 122°45'2 4.4
2018-Jun-15 21:31N 45°38' W 122°42'1 2.7
2018-Jun-15 21:00N 45°39' W 122°44'0 0.5
2018-Jun-15 20:30N 45°39' W 122°44'0 0.0
2018-Jun-15 20:00N 45°39' W 122°44'0 0.0
2018-Jun-15 19:30N 45°39' W 122°44'0 0.0
2018-Jun-15 19:01N 45°39' W 122°44'0 0.0
2018-Jun-15 18:30N 45°39' W 122°44'0 0.0
2018-Jun-15 18:00N 45°39' W 122°44'0 0.0
2018-Jun-15 17:30N 45°39' W 122°44'0 0.0
2018-Jun-15 17:01N 45°39' W 122°44'0 0.0
2018-Jun-15 16:31N 45°39' W 122°44'1 1.2
2018-Jun-15 15:51N 45°38' W 122°43'0 1.3
2018-Jun-15 15:30N 45°38' W 122°44'0 0.2
2018-Jun-15 15:00N 45°39' W 122°44'0 0.3
2018-Jun-15 14:30N 45°39' W 122°44'1 2.5
2018-Jun-15 14:01N 45°38' W 122°43'0 0.8
2018-Jun-15 13:30N 45°38' W 122°42'0 0.0
2018-Jun-15 13:00N 45°38' W 122°42'0 0.0
2018-Jun-15 12:30N 45°38' W 122°42'0 0.0
2018-Jun-15 11:49N 45°38' W 122°42'0 0.0
2018-Jun-15 11:30N 45°38' W 122°42'0 0.0
2018-Jun-15 11:00N 45°38' W 122°42'2 4.5
2018-Jun-15 10:30N 45°39' W 122°45'1 0.7
2018-Jun-15 09:37N 45°39' W 122°44'0 0.0
2018-Jun-15 09:30N 45°39' W 122°44'0 0.0
2018-Jun-15 09:00N 45°39' W 122°44'0 0.0
2018-Jun-15 08:30N 45°39' W 122°44'0 0.0
2018-Jun-15 08:00N 45°39' W 122°44'0 0.0
2018-Jun-15 07:19N 45°39' W 122°44'0 0.0
2018-Jun-15 06:59N 45°39' W 122°44'0 0.0
2018-Jun-15 06:31N 45°39' W 122°44'0 0.0
2018-Jun-15 06:01N 45°39' W 122°44'0 0.0
2018-Jun-15 05:31N 45°39' W 122°44'0 0.0
2018-Jun-15 05:00N 45°39' W 122°44'0 0.0
2018-Jun-15 04:30N 45°39' W 122°44'0 0.0
2018-Jun-15 04:00N 45°39' W 122°44'0 0.2
2018-Jun-15 03:19N 45°39' W 122°45'0 0.3
2018-Jun-15 03:00N 45°39' W 122°45'0 0.1
2018-Jun-15 02:31N 45°39' W 122°45'0 0.9
2018-Jun-15 02:01N 45°39' W 122°45'1 1.3
2018-Jun-15 01:30N 45°40' W 122°46'1 1.4
2018-Jun-15 01:00N 45°39' W 122°46'3 6.1
2018-Jun-15 00:31N 45°36' W 122°47'3 7.0
2018-Jun-15 00:00N 45°34' W 122°43'3 5.0
2018-Jun-14 23:30N 45°32' W 122°40'0 1.0
2018-Jun-14 23:01N 45°32' W 122°41'3 5.1
2018-Jun-14 22:29N 45°34' W 122°44'0 0.0
2018-Jun-14 22:00N 45°34' W 122°44'0 0.0
2018-Jun-14 21:31N 45°34' W 122°44'0 0.0
2018-Jun-14 21:00N 45°34' W 122°44'0 0.0
2018-Jun-14 20:31N 45°34' W 122°44'0 0.0
2018-Jun-14 20:00N 45°34' W 122°44'0 0.0
2018-Jun-14 19:31N 45°34' W 122°44'0 0.0
2018-Jun-14 19:00N 45°34' W 122°44'0 0.3
2018-Jun-14 18:30N 45°34' W 122°44'1 2.6
2018-Jun-14 18:01N 45°35' W 122°46'3 6.4
2018-Jun-14 17:30N 45°38' W 122°47'2 4.1
2018-Jun-14 17:00N 45°39' W 122°45'0 0.5
2018-Jun-14 16:30N 45°39' W 122°44'0 0.0
2018-Jun-14 16:00N 45°39' W 122°44'0 0.0
2018-Jun-14 15:30N 45°39' W 122°44'0 0.0
2018-Jun-14 15:00N 45°39' W 122°44'0 0.0
2018-Jun-14 14:22N 45°39' W 122°44'0 0.9
2018-Jun-14 14:00N 45°39' W 122°44'0 0.6
2018-Jun-14 13:30N 45°39' W 122°45'1 2.2
2018-Jun-14 13:00N 45°39' W 122°46'1 2.7
2018-Jun-14 12:30N 45°39' W 122°44'1 2.5
2018-Jun-14 12:00N 45°38' W 122°43'0 0.2
2018-Jun-14 11:30N 45°38' W 122°43'2 4.8
2018-Jun-14 11:00N 45°39' W 122°46'0 0.8
2018-Jun-14 10:30N 45°38' W 122°46'1 2.9
2018-Jun-14 10:00N 45°37' W 122°47'2 4.7
2018-Jun-14 09:30N 45°39' W 122°45'1 1.4
2018-Jun-14 09:00N 45°39' W 122°44'0 0.1
2018-Jun-14 08:30N 45°39' W 122°44'0 0.6
2018-Jun-14 08:00N 45°39' W 122°44'0 0.0
2018-Jun-14 07:30N 45°39' W 122°44'0 0.3
2018-Jun-14 07:00N 45°39' W 122°45'1 1.9
2018-Jun-14 06:30N 45°39' W 122°46'3 6.4
2018-Jun-14 06:00N 45°36' W 122°47'3 5.2
2018-Jun-14 05:30N 45°34' W 122°44'2 4.6
2018-Jun-14 05:00N 45°36' W 122°47'3 6.7
2018-Jun-14 04:30N 45°39' W 122°46'1 1.6
2018-Jun-14 04:00N 45°39' W 122°45'3 5.8
2018-Jun-14 03:27N 45°42' W 122°46'3 6.1
2018-Jun-14 03:00N 45°45' W 122°46'3 6.1
2018-Jun-14 02:30N 45°47' W 122°47'3 5.9
2018-Jun-14 02:00N 45°50' W 122°47'3 6.1
2018-Jun-14 01:30N 45°53' W 122°48'1 2.0
2018-Jun-14 01:00N 45°54' W 122°49'0 0.0
2018-Jun-14 00:30N 45°54' W 122°49'2 4.4
2018-Jun-14 00:00N 45°52' W 122°47'4 8.4
2018-Jun-13 23:30N 45°48' W 122°47'4 8.5
2018-Jun-13 23:00N 45°44' W 122°46'4 8.6
2018-Jun-13 22:30N 45°40' W 122°46'1 1.1
2018-Jun-13 22:00N 45°39' W 122°45'3 5.6
2018-Jun-13 21:30N 45°37' W 122°47'3 6.3
2018-Jun-13 21:00N 45°34' W 122°44'0 0.5
2018-Jun-13 20:30N 45°34' W 122°44'3 5.7
2018-Jun-13 20:00N 45°36' W 122°47'3 6.0
2018-Jun-13 19:30N 45°39' W 122°45'1 1.1
2018-Jun-13 19:00N 45°39' W 122°44'0 0.0
2018-Jun-13 18:30N 45°39' W 122°44'0 0.0
2018-Jun-13 18:00N 45°39' W 122°44'0 0.0
2018-Jun-13 17:30N 45°39' W 122°44'0 0.5
2018-Jun-13 16:57N 45°39' W 122°45'0 1.1
2018-Jun-13 16:30N 45°39' W 122°44'1 2.5
2018-Jun-13 16:00N 45°39' W 122°46'3 7.0
2018-Jun-13 15:30N 45°36' W 122°46'3 7.0
2018-Jun-13 15:00N 45°33' W 122°43'2 3.7
2018-Jun-13 14:30N 45°32' W 122°41'1 2.7
2018-Jun-13 14:00N 45°33' W 122°42'2 3.6
2018-Jun-13 13:30N 45°34' W 122°44'1 1.7
2018-Jun-13 13:00N 45°35' W 122°45'3 6.6
2018-Jun-13 12:30N 45°37' W 122°47'3 5.0
2018-Jun-13 12:00N 45°39' W 122°45'0 0.0
2018-Jun-13 11:30N 45°39' W 122°45'1 1.3
2018-Jun-13 11:00N 45°39' W 122°45'4 8.4
2018-Jun-13 10:30N 45°37' W 122°40'3 5.4
2018-Jun-13 10:01N 45°36' W 122°36'510.1
2018-Jun-13 09:30N 45°35' W 122°29'3 5.1
2018-Jun-13 09:00N 45°34' W 122°26'0 0.1
2018-Jun-13 08:30N 45°34' W 122°26'2 4.8
2018-Jun-13 08:00N 45°35' W 122°29'3 6.3
2018-Jun-13 07:30N 45°36' W 122°33'3 6.2
2018-Jun-13 07:00N 45°36' W 122°38'3 6.2
2018-Jun-13 06:28N 45°38' W 122°42'3 6.4
2018-Jun-13 06:00N 45°40' W 122°45'1 2.0
2018-Jun-13 05:30N 45°39' W 122°44'0 0.1
2018-Jun-13 05:00N 45°39' W 122°44'0 0.1
2018-Jun-13 04:30N 45°39' W 122°44'0 0.3
2018-Jun-13 03:52N 45°39' W 122°45'1 1.6
2018-Jun-13 03:30N 45°39' W 122°45'3 5.9
2018-Jun-13 03:00N 45°36' W 122°47'3 3.9
2018-Jun-13 02:12N 45°34' W 122°44'0 0.0
2018-Jun-13 02:00N 45°34' W 122°44'0 0.0
2018-Jun-13 01:30N 45°34' W 122°44'0 0.1
2018-Jun-13 01:00N 45°34' W 122°44'0 0.0
2018-Jun-13 00:31N 45°34' W 122°44'0 0.0
2018-Jun-13 00:00N 45°34' W 122°44'0 0.0
2018-Jun-12 23:30N 45°34' W 122°44'0 0.0
2018-Jun-12 23:00N 45°34' W 122°44'0 0.0
2018-Jun-12 22:30N 45°34' W 122°44'0 0.0
2018-Jun-12 22:00N 45°34' W 122°44'1 1.4
2018-Jun-12 21:30N 45°35' W 122°45'4 7.3
2018-Jun-12 21:00N 45°38' W 122°47'2 4.1
2018-Jun-12 20:30N 45°39' W 122°45'2 3.9
2018-Jun-12 20:00N 45°38' W 122°43'0 0.3
2018-Jun-12 19:31N 45°38' W 122°43'1 2.4
2018-Jun-12 19:00N 45°39' W 122°44'0 0.0
2018-Jun-12 18:30N 45°39' W 122°44'0 0.0
2018-Jun-12 18:00N 45°39' W 122°44'0 0.4
2018-Jun-12 17:24N 45°39' W 122°45'  

Dump ship's entire track history